sensor_id;sensor_type;location;lat;lon;timestamp;P1;durP1;ratioP1;P2;durP2;ratioP2
47335;SDS011;33068;51.990;5.926;2023-04-30T00:14:51;10.38;;;5.85;;
47335;SDS011;33068;51.990;5.926;2023-04-30T00:22:17;11.95;;;6.00;;
47335;SDS011;33068;51.990;5.926;2023-04-30T03:22:58;15.02;;;7.15;;
47335;SDS011;33068;51.990;5.926;2023-04-30T03:42:39;10.45;;;6.75;;
47335;SDS011;33068;51.990;5.926;2023-04-30T04:02:17;19.55;;;8.07;;
47335;SDS011;33068;51.990;5.926;2023-04-30T04:04:45;23.50;;;9.77;;
47335;SDS011;33068;51.990;5.926;2023-04-30T04:07:12;18.92;;;9.18;;
47335;SDS011;33068;51.990;5.926;2023-04-30T04:19:30;19.70;;;9.50;;
47335;SDS011;33068;51.990;5.926;2023-04-30T04:56:25;14.52;;;9.10;;
47335;SDS011;33068;51.990;5.926;2023-04-30T05:01:19;22.25;;;11.32;;
47335;SDS011;33068;51.990;5.926;2023-04-30T05:03:46;23.75;;;13.13;;
47335;SDS011;33068;51.990;5.926;2023-04-30T05:06:13;20.45;;;12.65;;
47335;SDS011;33068;51.990;5.926;2023-04-30T05:08:42;25.42;;;13.35;;
47335;SDS011;33068;51.990;5.926;2023-04-30T05:11:09;23.08;;;13.35;;
47335;SDS011;33068;51.990;5.926;2023-04-30T06:49:16;23.25;;;8.10;;
47335;SDS011;33068;51.990;5.926;2023-04-30T06:51:44;13.00;;;6.95;;
47335;SDS011;33068;51.990;5.926;2023-04-30T06:54:11;13.27;;;7.22;;
47335;SDS011;33068;51.990;5.926;2023-04-30T06:56:38;10.85;;;7.25;;
47335;SDS011;33068;51.990;5.926;2023-04-30T06:59:05;13.48;;;7.45;;
47335;SDS011;33068;51.990;5.926;2023-04-30T07:01:32;10.45;;;6.78;;
47335;SDS011;33068;51.990;5.926;2023-04-30T07:03:59;14.32;;;7.38;;
47335;SDS011;33068;51.990;5.926;2023-04-30T07:06:27;11.43;;;7.18;;
47335;SDS011;33068;51.990;5.926;2023-04-30T07:08:56;10.70;;;6.82;;
47335;SDS011;33068;51.990;5.926;2023-04-30T07:11:23;15.73;;;6.85;;
47335;SDS011;33068;51.990;5.926;2023-04-30T07:16:17;11.60;;;6.07;;
47335;SDS011;33068;51.990;5.926;2023-04-30T07:18:44;12.52;;;6.20;;
47335;SDS011;33068;51.990;5.926;2023-04-30T07:21:13;9.60;;;5.95;;
47335;SDS011;33068;51.990;5.926;2023-04-30T07:23:40;7.85;;;5.20;;
47335;SDS011;33068;51.990;5.926;2023-04-30T07:26:09;7.90;;;5.68;;
47335;SDS011;33068;51.990;5.926;2023-04-30T07:28:36;11.77;;;6.30;;
47335;SDS011;33068;51.990;5.926;2023-04-30T07:31:04;10.00;;;6.38;;
47335;SDS011;33068;51.990;5.926;2023-04-30T07:33:31;12.32;;;5.63;;
47335;SDS011;33068;51.990;5.926;2023-04-30T07:35:58;11.57;;;4.97;;
47335;SDS011;33068;51.990;5.926;2023-04-30T07:38:25;11.57;;;5.18;;
47335;SDS011;33068;51.990;5.926;2023-04-30T07:40:53;10.40;;;5.00;;
47335;SDS011;33068;51.990;5.926;2023-04-30T07:43:22;9.15;;;4.90;;
47335;SDS011;33068;51.990;5.926;2023-04-30T07:45:49;7.53;;;5.15;;
47335;SDS011;33068;51.990;5.926;2023-04-30T07:48:17;8.88;;;5.35;;
47335;SDS011;33068;51.990;5.926;2023-04-30T07:50:46;9.77;;;5.43;;
47335;SDS011;33068;51.990;5.926;2023-04-30T07:53:13;9.07;;;5.68;;
47335;SDS011;33068;51.990;5.926;2023-04-30T07:55:40;8.32;;;4.97;;
47335;SDS011;33068;51.990;5.926;2023-04-30T07:58:07;13.35;;;6.38;;
47335;SDS011;33068;51.990;5.926;2023-04-30T08:00:36;11.15;;;5.10;;
47335;SDS011;33068;51.990;5.926;2023-04-30T08:03:03;7.18;;;5.10;;
47335;SDS011;33068;51.990;5.926;2023-04-30T08:05:30;9.15;;;5.43;;
47335;SDS011;33068;51.990;5.926;2023-04-30T08:07:57;10.13;;;5.25;;
47335;SDS011;33068;51.990;5.926;2023-04-30T08:10:25;6.95;;;5.13;;
47335;SDS011;33068;51.990;5.926;2023-04-30T08:12:52;8.27;;;5.30;;
47335;SDS011;33068;51.990;5.926;2023-04-30T08:15:19;12.90;;;5.60;;
47335;SDS011;33068;51.990;5.926;2023-04-30T08:17:49;8.75;;;5.15;;
47335;SDS011;33068;51.990;5.926;2023-04-30T08:20:16;8.43;;;4.95;;
47335;SDS011;33068;51.990;5.926;2023-04-30T08:22:43;7.53;;;3.88;;
47335;SDS011;33068;51.990;5.926;2023-04-30T08:25:11;9.90;;;4.57;;
47335;SDS011;33068;51.990;5.926;2023-04-30T08:27:39;5.72;;;4.05;;
47335;SDS011;33068;51.990;5.926;2023-04-30T08:30:06;4.88;;;4.15;;
47335;SDS011;33068;51.990;5.926;2023-04-30T08:32:34;8.27;;;3.83;;
47335;SDS011;33068;51.990;5.926;2023-04-30T08:35:03;5.43;;;3.95;;
47335;SDS011;33068;51.990;5.926;2023-04-30T08:37:30;5.63;;;3.65;;
47335;SDS011;33068;51.990;5.926;2023-04-30T08:39:59;8.65;;;4.18;;
47335;SDS011;33068;51.990;5.926;2023-04-30T08:42:28;6.10;;;3.67;;
47335;SDS011;33068;51.990;5.926;2023-04-30T08:44:57;7.15;;;3.80;;
47335;SDS011;33068;51.990;5.926;2023-04-30T08:47:27;4.90;;;3.00;;
47335;SDS011;33068;51.990;5.926;2023-04-30T08:49:54;6.20;;;3.85;;
47335;SDS011;33068;51.990;5.926;2023-04-30T08:52:23;3.83;;;3.20;;
47335;SDS011;33068;51.990;5.926;2023-04-30T08:54:51;7.95;;;4.10;;
47335;SDS011;33068;51.990;5.926;2023-04-30T08:57:20;9.15;;;3.90;;
47335;SDS011;33068;51.990;5.926;2023-04-30T08:59:47;6.10;;;4.20;;
47335;SDS011;33068;51.990;5.926;2023-04-30T09:02:14;7.18;;;3.95;;
47335;SDS011;33068;51.990;5.926;2023-04-30T09:04:41;7.80;;;4.13;;
47335;SDS011;33068;51.990;5.926;2023-04-30T09:07:08;4.55;;;3.50;;
47335;SDS011;33068;51.990;5.926;2023-04-30T09:09:40;9.20;;;3.30;;
47335;SDS011;33068;51.990;5.926;2023-04-30T09:12:10;8.68;;;4.57;;
47335;SDS011;33068;51.990;5.926;2023-04-30T09:14:39;6.18;;;3.95;;
47335;SDS011;33068;51.990;5.926;2023-04-30T09:17:07;7.53;;;4.38;;
47335;SDS011;33068;51.990;5.926;2023-04-30T09:19:34;8.30;;;4.22;;
47335;SDS011;33068;51.990;5.926;2023-04-30T09:22:17;7.95;;;3.75;;
47335;SDS011;33068;51.990;5.926;2023-04-30T09:24:46;6.78;;;3.70;;
47335;SDS011;33068;51.990;5.926;2023-04-30T09:47:09;4.15;;;3.60;;
47335;SDS011;33068;51.990;5.926;2023-04-30T11:06:55;4.18;;;2.83;;
47335;SDS011;33068;51.990;5.926;2023-04-30T11:12:02;6.32;;;3.22;;
47335;SDS011;33068;51.990;5.926;2023-04-30T11:14:30;4.78;;;2.85;;
47335;SDS011;33068;51.990;5.926;2023-04-30T11:19:26;3.53;;;2.50;;
47335;SDS011;33068;51.990;5.926;2023-04-30T11:37:08;4.65;;;2.50;;
47335;SDS011;33068;51.990;5.926;2023-04-30T11:39:38;6.00;;;2.40;;
47335;SDS011;33068;51.990;5.926;2023-04-30T11:47:04;7.43;;;2.92;;
47335;SDS011;33068;51.990;5.926;2023-04-30T11:54:25;6.47;;;2.60;;
47335;SDS011;33068;51.990;5.926;2023-04-30T12:01:53;4.45;;;2.22;;
47335;SDS011;33068;51.990;5.926;2023-04-30T12:33:58;5.03;;;1.70;;
47335;SDS011;33068;51.990;5.926;2023-04-30T12:39:01;3.38;;;1.10;;
47335;SDS011;33068;51.990;5.926;2023-04-30T14:15:42;6.45;;;0.77;;
47335;SDS011;33068;51.990;5.926;2023-04-30T15:41:40;3.00;;;0.50;;
47335;SDS011;33068;51.990;5.926;2023-04-30T16:25:53;2.35;;;0.50;;
47335;SDS011;33068;51.990;5.926;2023-04-30T16:28:20;1.75;;;0.68;;
47335;SDS011;33068;51.990;5.926;2023-04-30T16:30:47;1.35;;;0.35;;
47335;SDS011;33068;51.990;5.926;2023-04-30T16:43:03;1.75;;;0.38;;
47335;SDS011;33068;51.990;5.926;2023-04-30T17:05:12;3.55;;;0.40;;
47335;SDS011;33068;51.990;5.926;2023-04-30T17:19:57;1.20;;;0.40;;
47335;SDS011;33068;51.990;5.926;2023-04-30T17:22:24;2.38;;;0.50;;
47335;SDS011;33068;51.990;5.926;2023-04-30T17:29:46;1.90;;;0.60;;
47335;SDS011;33068;51.990;5.926;2023-04-30T17:32:15;3.30;;;1.08;;
47335;SDS011;33068;51.990;5.926;2023-04-30T17:34:43;1.20;;;0.40;;
47335;SDS011;33068;51.990;5.926;2023-04-30T17:44:32;2.55;;;0.60;;
47335;SDS011;33068;51.990;5.926;2023-04-30T18:11:34;22.17;;;7.65;;
47335;SDS011;33068;51.990;5.926;2023-04-30T18:31:13;4.07;;;1.80;;
47335;SDS011;33068;51.990;5.926;2023-04-30T18:48:25;3.00;;;0.60;;
47335;SDS011;33068;51.990;5.926;2023-04-30T21:20:51;3.67;;;1.80;;
